Terminal Aerodrome Forecast
Issued by NWS Goodland, KS

Home | Current Version | Previous Version | Text Only | Print | Product List | Glossary On
Versions: 1 2 3 4 5 6 7 8 9 10 11 12 13 14 15 16 17 18 19 20 21 22 23 24 25
000
FTUS43 KGLD 260531
TAFGLD
TAF
KGLD 260531Z 2606/2706 36006KT 6SM BR SCT003 BKN008
      TEMPO 2606/2610 3SM -DZ BR
     FM261300 35006KT P6SM SCT010 BKN020
     FM261600 36006KT P6SM BKN100
     FM262000 VRB06KT P6SM SCT200=

USA.gov is the U.S. government's official web portal to all federal, state and local government web resources and services.